Time;durP1;ratioP1;P1;durP2;ratioP2;P2;SDS_P1;SDS_P2;PMS_P1;PMS_P2;Temp;Humidity;BMP_temperature;BMP_pressure;BME280_temperature;BME280_humidity;BME280_pressure;Samples;Min_cycle;Max_cycle;Signal;HPM_P1;HPM_P2
2021/03/19 00:02:08;;;;;;;16.97;8.20;;;0.00;99.90;;;;;;5168707;28;20214;-68
2021/03/19 00:04:40;;;;;;;22.27;8.70;;;0.00;99.90;;;;;;5166878;28;20298;-65
2021/03/19 00:07:11;;;;;;;19.03;8.90;;;0.00;99.90;;;;;;5168166;28;20215;-65
2021/03/19 00:09:44;;;;;;;23.50;9.40;;;0.00;99.90;;;;;;5168481;28;20195;-63
2021/03/19 00:12:15;;;;;;;25.40;10.70;;;0.00;99.90;;;;;;5168173;28;20291;-64
2021/03/19 00:14:46;;;;;;;19.47;10.60;;;0.00;99.90;;;;;;5168392;28;20196;-64
2021/03/19 00:17:18;;;;;;;17.23;8.90;;;0.00;99.90;;;;;;5167969;28;20198;-65
2021/03/19 00:19:50;;;;;;;16.53;8.43;;;0.00;99.90;;;;;;5168202;28;20217;-64
2021/03/19 00:22:21;;;;;;;17.17;8.77;;;0.00;99.90;;;;;;5167847;28;20195;-60
2021/03/19 00:24:53;;;;;;;20.07;8.73;;;0.00;99.90;;;;;;5168210;28;20192;-63
2021/03/19 00:27:24;;;;;;;20.40;9.13;;;0.00;99.90;;;;;;5167579;28;20560;-63
2021/03/19 00:29:56;;;;;;;17.23;8.47;;;0.00;99.90;;;;;;5167894;28;20200;-62
2021/03/19 00:32:28;;;;;;;20.60;9.43;;;0.00;99.90;;;;;;5167787;28;20210;-63
2021/03/19 00:34:59;;;;;;;20.10;9.03;;;0.00;99.90;;;;;;5167888;28;20199;-64
2021/03/19 00:37:31;;;;;;;20.17;9.70;;;0.00;99.90;;;;;;5167920;28;20628;-63
2021/03/19 00:40:08;;;;;;;16.13;8.93;;;0.00;99.90;;;;;;5167576;28;20191;-62
2021/03/19 00:42:41;;;;;;;18.03;8.63;;;0.00;99.90;;;;;;5167846;28;20199;-62
2021/03/19 00:45:15;;;;;;;19.57;9.60;;;0.00;99.90;;;;;;5167904;28;20647;-65
2021/03/19 00:47:53;;;;;;;15.27;8.70;;;0.00;99.90;;;;;;5167908;28;20339;-68
2021/03/19 00:50:41;;;;;;;14.93;8.17;;;0.10;99.90;;;;;;5167700;28;20206;-65
2021/03/19 00:56:58;;;;;;;18.20;8.03;;;0.00;99.90;;;;;;5167457;28;20172;-64
2021/03/19 00:59:30;;;;;;;18.60;8.90;;;0.10;99.90;;;;;;5167622;28;20195;-64
2021/03/19 01:02:01;;;;;;;14.13;8.80;;;0.10;99.90;;;;;;5167743;28;20195;-64
2021/03/19 01:04:33;;;;;;;20.17;9.80;;;0.10;99.90;;;;;;5167427;28;20295;-63
2021/03/19 01:07:05;;;;;;;17.97;9.23;;;0.10;99.90;;;;;;5167543;28;20661;-62
2021/03/19 01:13:23;;;;;;;15.90;8.47;;;0.10;99.90;;;;;;5167683;28;20179;-64
2021/03/19 01:15:55;;;;;;;17.00;8.97;;;0.10;99.90;;;;;;5167897;28;20203;-63
2021/03/19 01:18:31;;;;;;;18.87;9.80;;;0.10;99.90;;;;;;5167176;28;20206;-66
2021/03/19 01:21:17;;;;;;;18.60;9.90;;;0.10;99.90;;;;;;5167116;28;20282;-64
2021/03/19 01:23:49;;;;;;;18.97;9.77;;;0.10;99.90;;;;;;5167330;28;20558;-64
2021/03/19 01:26:21;;;;;;;17.07;9.03;;;0.10;99.90;;;;;;5166938;28;20200;-64
2021/03/19 01:28:52;;;;;;;20.90;10.43;;;0.10;99.90;;;;;;5166936;28;20223;-64
2021/03/19 01:31:27;;;;;;;20.47;10.13;;;0.10;99.90;;;;;;5167306;28;20573;-63
2021/03/19 01:34:00;;;;;;;18.93;9.57;;;0.10;99.90;;;;;;5167261;28;20196;-68
2021/03/19 01:36:32;;;;;;;19.30;9.03;;;0.10;99.90;;;;;;5166837;28;20191;-63
2021/03/19 01:39:04;;;;;;;18.67;9.43;;;0.10;99.90;;;;;;5166069;28;20202;-64
2021/03/19 01:41:35;;;;;;;17.93;10.50;;;0.10;99.90;;;;;;5166627;28;20239;-67
2021/03/19 01:44:10;;;;;;;17.90;9.53;;;0.10;99.90;;;;;;5166858;28;20658;-64
2021/03/19 01:47:19;;;;;;;17.47;9.77;;;0.10;99.90;;;;;;5165933;28;20191;-64
2021/03/19 01:50:31;;;;;;;17.27;9.30;;;0.10;99.90;;;;;;5167857;28;20202;-62
2021/03/19 01:57:27;;;;;;;19.27;9.57;;;0.10;99.90;;;;;;5166986;28;20178;-63
2021/03/19 02:00:36;;;;;;;23.27;10.83;;;0.10;99.90;;;;;;5166701;28;20195;-66
2021/03/19 02:03:45;;;;;;;20.37;10.40;;;0.10;99.90;;;;;;5166907;28;20539;-62
2021/03/19 02:06:54;;;;;;;27.93;10.13;;;0.00;99.90;;;;;;5167292;28;20199;-63
2021/03/19 02:10:03;;;;;;;21.37;10.60;;;0.00;99.90;;;;;;5166786;28;20242;-62
2021/03/19 02:13:12;;;;;;;19.73;10.27;;;0.10;99.90;;;;;;5167322;28;20196;-62
2021/03/19 02:16:20;;;;;;;18.47;10.07;;;0.00;99.90;;;;;;5167293;28;20195;-67
2021/03/19 02:19:29;;;;;;;15.93;9.87;;;0.10;99.90;;;;;;5168037;28;20258;-63
2021/03/19 02:22:38;;;;;;;18.90;10.20;;;0.00;99.90;;;;;;5167670;28;20198;-63
2021/03/19 02:29:44;;;;;;;22.13;9.87;;;0.00;99.90;;;;;;5167286;28;20234;-68
2021/03/19 02:32:27;;;;;;;24.23;11.07;;;0.00;99.90;;;;;;5167646;28;20200;-67
2021/03/19 02:35:20;;;;;;;22.17;11.63;;;0.00;99.90;;;;;;5165849;28;20195;-66
2021/03/19 02:37:52;;;;;;;23.17;10.73;;;0.00;99.90;;;;;;5166795;28;20199;-61
2021/03/19 02:40:24;;;;;;;21.17;10.40;;;0.00;99.90;;;;;;5166030;28;20192;-61
2021/03/19 02:42:56;;;;;;;19.93;10.03;;;0.00;99.90;;;;;;5166639;28;20537;-64
2021/03/19 02:45:27;;;;;;;21.03;10.30;;;0.00;99.90;;;;;;5167113;28;20210;-63
2021/03/19 02:47:59;;;;;;;20.90;9.60;;;0.00;99.90;;;;;;5165922;28;20220;-61
2021/03/19 02:50:31;;;;;;;21.83;10.63;;;0.00;99.90;;;;;;5169039;28;20215;-64
2021/03/19 02:53:04;;;;;;;22.10;9.87;;;0.00;99.90;;;;;;5169539;28;20202;-63
2021/03/19 02:55:35;;;;;;;20.67;10.17;;;0.00;99.90;;;;;;5169709;28;20198;-65
2021/03/19 02:58:07;;;;;;;22.03;10.00;;;0.00;99.90;;;;;;5170200;28;20202;-67
2021/03/19 03:00:38;;;;;;;19.27;9.47;;;0.00;99.90;;;;;;5169767;28;20550;-64
2021/03/19 03:03:11;;;;;;;16.97;9.37;;;0.00;99.90;;;;;;5170439;28;20226;-63
2021/03/19 03:05:42;;;;;;;16.80;8.83;;;0.00;99.90;;;;;;5169354;28;20730;-63
2021/03/19 03:08:17;;;;;;;17.00;9.37;;;0.00;99.90;;;;;;5169572;28;20223;-64
2021/03/19 03:10:51;;;;;;;14.43;8.33;;;0.00;99.90;;;;;;5169055;28;20199;-62
2021/03/19 03:13:22;;;;;;;18.13;9.40;;;-0.10;99.90;;;;;;5169660;28;20199;-65
2021/03/19 03:15:55;;;;;;;15.80;8.27;;;-0.10;99.90;;;;;;5170579;28;20207;-64
2021/03/19 03:18:27;;;;;;;16.80;8.50;;;-0.20;99.90;;;;;;5169443;28;20283;-62
2021/03/19 03:21:00;;;;;;;18.10;8.93;;;-0.20;99.90;;;;;;5169635;28;20231;-61
2021/03/19 03:27:17;;;;;;;18.60;8.83;;;-0.20;99.90;;;;;;5169139;28;20184;-65
2021/03/19 03:29:49;;;;;;;19.47;9.07;;;-0.20;99.90;;;;;;5169687;28;20585;-65
2021/03/19 03:32:21;;;;;;;15.93;8.87;;;-0.20;99.90;;;;;;5169395;28;20192;-65
2021/03/19 03:34:53;;;;;;;15.53;8.00;;;-0.10;99.90;;;;;;5169494;28;20283;-61
2021/03/19 03:37:24;;;;;;;18.17;8.50;;;-0.10;99.90;;;;;;5169313;28;20563;-63
2021/03/19 03:44:19;;;;;;;14.93;8.00;;;-0.10;99.90;;;;;;5167802;28;20238;-64
2021/03/19 03:46:51;;;;;;;13.97;7.83;;;-0.10;99.90;;;;;;5169190;28;20218;-64
2021/03/19 03:49:24;;;;;;;13.57;7.33;;;-0.10;99.90;;;;;;5167455;28;20219;-64
2021/03/19 03:51:55;;;;;;;17.57;8.43;;;-0.10;99.90;;;;;;5168599;28;20195;-64
2021/03/19 03:58:22;;;;;;;11.73;6.53;;;-0.10;99.90;;;;;;5168296;28;20194;-64
2021/03/19 04:00:54;;;;;;;13.50;6.73;;;-0.10;99.90;;;;;;5167368;28;20199;-66
2021/03/19 04:03:26;;;;;;;12.40;5.80;;;-0.10;99.90;;;;;;5168116;28;20662;-64
2021/03/19 04:05:59;;;;;;;7.90;4.70;;;-0.10;99.90;;;;;;5168097;28;20211;-63
2021/03/19 04:08:32;;;;;;;6.10;2.90;;;-0.10;99.90;;;;;;5167746;28;20230;-66
2021/03/19 04:14:59;;;;;;;4.47;2.20;;;0.00;99.90;;;;;;5167968;28;20190;-64
2021/03/19 04:17:33;;;;;;;8.70;2.30;;;0.00;99.90;;;;;;5168103;28;20192;-65
2021/03/19 04:20:07;;;;;;;3.53;1.90;;;0.00;99.90;;;;;;5167858;28;20203;-69
2021/03/19 04:22:39;;;;;;;3.47;1.80;;;0.00;99.90;;;;;;5168428;28;20191;-63
2021/03/19 04:25:12;;;;;;;3.50;1.90;;;0.00;99.90;;;;;;5167993;28;20196;-65
2021/03/19 04:28:13;;;;;;;4.30;1.90;;;0.00;99.90;;;;;;5168078;28;20219;-64
2021/03/19 04:30:46;;;;;;;4.60;2.13;;;0.00;99.90;;;;;;5166842;28;20203;-66
2021/03/19 04:33:22;;;;;;;7.33;2.90;;;0.00;99.90;;;;;;5166450;28;20199;-68
2021/03/19 04:36:22;;;;;;;3.13;2.20;;;0.10;99.90;;;;;;5167879;28;20599;-67
2021/03/19 04:42:49;;;;;;;5.17;1.73;;;0.00;99.90;;;;;;5167236;28;20274;-75
2021/03/19 04:45:21;;;;;;;3.20;1.70;;;0.00;99.90;;;;;;5167585;28;20534;-72
2021/03/19 04:47:54;;;;;;;7.27;2.27;;;0.00;99.90;;;;;;5167235;28;20219;-67
2021/03/19 04:50:25;;;;;;;6.93;1.90;;;0.00;99.90;;;;;;5167523;28;20213;-66
2021/03/19 04:52:57;;;;;;;3.37;1.77;;;0.00;99.90;;;;;;5167493;28;20558;-70
2021/03/19 04:59:24;;;;;;;3.53;1.87;;;-0.10;99.90;;;;;;5167035;28;20171;-67
2021/03/19 05:02:00;;;;;;;3.37;1.90;;;-0.10;99.90;;;;;;5167278;28;20555;-72
2021/03/19 05:04:32;;;;;;;3.83;1.77;;;-0.10;99.90;;;;;;5167243;28;20278;-73
2021/03/19 05:07:09;;;;;;;3.83;1.87;;;-0.10;99.90;;;;;;5166865;28;20234;-76
2021/03/19 05:09:40;;;;;;;2.73;1.70;;;-0.10;99.90;;;;;;5166910;28;20219;-76
2021/03/19 05:12:12;;;;;;;3.23;1.60;;;-0.10;99.90;;;;;;5166125;28;20207;-70
2021/03/19 05:14:43;;;;;;;4.83;1.73;;;-0.10;99.90;;;;;;5165334;28;20200;-78
2021/03/19 05:17:15;;;;;;;2.97;1.90;;;-0.10;99.90;;;;;;5166509;28;20231;-76
2021/03/19 05:19:47;;;;;;;4.47;1.93;;;0.00;99.90;;;;;;5166482;28;20250;-71
2021/03/19 05:22:19;;;;;;;5.73;2.37;;;0.00;99.90;;;;;;5166419;28;20200;-76
2021/03/19 05:24:51;;;;;;;5.47;2.20;;;0.00;99.90;;;;;;5166956;28;20196;-75
2021/03/19 05:27:24;;;;;;;5.83;2.30;;;-0.10;99.90;;;;;;5165263;28;20196;-73
2021/03/19 05:29:57;;;;;;;3.20;2.17;;;-0.10;99.90;;;;;;5166763;28;20206;-69
2021/03/19 05:32:28;;;;;;;5.33;2.57;;;-0.30;99.90;;;;;;5166565;28;20200;-75
2021/03/19 05:35:02;;;;;;;6.27;3.00;;;-0.40;99.90;;;;;;5165372;28;20203;-72
2021/03/19 05:37:34;;;;;;;5.43;2.67;;;-0.40;99.90;;;;;;5166684;28;20199;-67
2021/03/19 05:40:11;;;;;;;5.00;2.57;;;-0.50;99.90;;;;;;5166696;28;20549;-66
2021/03/19 05:42:43;;;;;;;6.20;2.80;;;-0.60;99.90;;;;;;5166059;28;20333;-64
2021/03/19 05:45:14;;;;;;;11.13;3.57;;;-0.60;99.90;;;;;;5165028;28;20196;-70
2021/03/19 05:47:46;;;;;;;5.83;3.17;;;-0.60;99.90;;;;;;5166051;28;20711;-74
2021/03/19 05:50:34;;;;;;;9.53;3.07;;;-0.60;99.90;;;;;;5166135;28;20238;-67
2021/03/19 05:53:16;;;;;;;4.80;3.00;;;-0.60;99.90;;;;;;5166198;28;20291;-69
2021/03/19 05:55:48;;;;;;;7.30;3.33;;;-0.60;99.90;;;;;;5166028;28;20195;-63
2021/03/19 05:58:29;;;;;;;5.50;2.60;;;-0.60;99.90;;;;;;5166278;28;20196;-70
2021/03/19 06:01:01;;;;;;;7.13;2.77;;;-0.60;99.90;;;;;;5166119;28;20200;-62
2021/03/19 06:03:33;;;;;;;7.13;2.87;;;-0.60;99.90;;;;;;5166145;28;20617;-71
2021/03/19 06:06:08;;;;;;;5.90;2.47;;;-0.70;99.90;;;;;;5166256;28;20213;-76
2021/03/19 06:08:46;;;;;;;8.67;2.73;;;-0.60;99.90;;;;;;5165953;28;20219;-68
2021/03/19 06:11:24;;;;;;;5.53;2.90;;;-0.60;99.90;;;;;;5165922;28;20191;-69
2021/03/19 06:14:01;;;;;;;5.27;2.30;;;-0.60;99.90;;;;;;5166219;28;20568;-69
2021/03/19 06:16:45;;;;;;;4.10;2.07;;;-0.50;99.90;;;;;;5166198;28;20281;-76
2021/03/19 06:19:34;;;;;;;5.23;2.43;;;-0.50;99.90;;;;;;5166455;28;20258;-69
2021/03/19 06:22:22;;;;;;;3.70;1.60;;;-0.50;99.90;;;;;;5166134;28;20191;-74
2021/03/19 06:29:29;;;;;;;3.40;1.93;;;-0.40;99.90;;;;;;5169807;28;20220;-67
2021/03/19 06:32:11;;;;;;;4.17;1.80;;;-0.40;99.90;;;;;;5127714;29;20278;-72
2021/03/19 06:35:13;;;;;;;4.57;1.87;;;-0.40;99.90;;;;;;5127301;29;20638;-71
2021/03/19 06:37:50;;;;;;;3.37;1.50;;;-0.40;99.90;;;;;;5127166;29;20219;-70
2021/03/19 06:40:36;;;;;;;3.30;1.50;;;-0.40;99.90;;;;;;5129426;29;20200;-75
2021/03/19 06:43:24;;;;;;;2.77;1.50;;;-0.30;99.90;;;;;;5130091;29;20244;-75
2021/03/19 06:46:16;;;;;;;2.17;1.40;;;-0.30;99.90;;;;;;5128197;29;20644;-69
2021/03/19 06:48:53;;;;;;;3.40;1.70;;;-0.20;99.90;;;;;;5127439;29;20228;-73
2021/03/19 06:51:37;;;;;;;2.80;1.43;;;-0.20;99.90;;;;;;5127766;29;20651;-72
2021/03/19 06:54:19;;;;;;;3.30;1.40;;;-0.20;99.90;;;;;;5127338;29;20228;-71
2021/03/19 06:57:09;;;;;;;2.33;1.43;;;-0.20;99.90;;;;;;5127097;29;20232;-71
2021/03/19 06:59:47;;;;;;;4.07;1.87;;;-0.10;99.90;;;;;;5127192;29;20287;-75
2021/03/19 07:02:52;;;;;;;7.57;1.43;;;-0.10;99.90;;;;;;5127198;29;20668;-74
2021/03/19 07:05:49;;;;;;;3.47;1.50;;;1.00;99.90;;;;;;5127993;29;20232;-73
2021/03/19 07:08:30;;;;;;;3.87;1.63;;;1.70;99.90;;;;;;5135563;28;20322;-69
2021/03/19 07:15:13;;;;;;;2.13;1.20;;;2.50;99.90;;;;;;5102865;28;20613;-63
2021/03/19 07:18:12;;;;;;;4.70;1.30;;;2.40;99.90;;;;;;5032462;28;20651;-64
2021/03/19 07:21:03;;;;;;;4.00;1.30;;;1.90;99.90;;;;;;5017185;28;20877;-63
2021/03/19 07:24:10;;;;;;;3.97;1.47;;;1.70;99.90;;;;;;5014925;28;20191;-63
2021/03/19 07:31:01;;;;;;;3.83;1.30;;;3.00;99.90;;;;;;4982631;28;20707;-63
2021/03/19 07:33:33;;;;;;;5.13;1.40;;;3.70;99.90;;;;;;5125278;29;20209;-63
2021/03/19 07:36:23;;;;;;;2.57;1.00;;;4.20;99.90;;;;;;5124196;28;20194;-65
2021/03/19 07:39:16;;;;;;;2.67;1.17;;;4.40;99.90;;;;;;5124954;29;20791;-63
2021/03/19 07:42:09;;;;;;;7.80;1.10;;;3.90;99.90;;;;;;5124864;29;20208;-64
2021/03/19 07:45:03;;;;;;;4.63;1.10;;;2.80;99.90;;;;;;5125084;29;20201;-64
2021/03/19 07:48:08;;;;;;;3.27;1.10;;;2.00;99.90;;;;;;5124675;29;20201;-66
2021/03/19 07:51:02;;;;;;;4.60;1.60;;;1.40;99.90;;;;;;5108735;29;20636;-66
2021/03/19 07:53:36;;;;;;;2.57;0.90;;;1.10;99.90;;;;;;5124963;29;20196;-65
2021/03/19 08:00:12;;;;;;;2.80;1.13;;;1.20;99.90;;;;;;5124542;29;20173;-66
2021/03/19 08:02:47;;;;;;;4.87;1.10;;;1.20;99.90;;;;;;5132259;28;20290;-67
2021/03/19 08:05:33;;;;;;;3.40;0.80;;;0.80;99.90;;;;;;5167241;28;20195;-68
2021/03/19 08:08:13;;;;;;;3.77;1.40;;;0.50;99.90;;;;;;5166619;28;20310;-69
2021/03/19 08:11:09;;;;;;;2.83;0.90;;;0.50;99.90;;;;;;5166954;28;20282;-74
2021/03/19 08:14:04;;;;;;;2.87;1.13;;;0.60;99.90;;;;;;5166510;28;20200;-63
2021/03/19 08:16:49;;;;;;;3.13;1.10;;;0.60;99.90;;;;;;5166243;28;20199;-65
2021/03/19 08:19:32;;;;;;;4.93;1.20;;;0.90;99.90;;;;;;5166076;28;20219;-69
2021/03/19 08:22:21;;;;;;;4.77;1.00;;;1.10;99.90;;;;;;5167583;28;20200;-69
2021/03/19 08:28:58;;;;;;;3.70;1.07;;;1.30;99.90;;;;;;5165869;28;20301;-65
2021/03/19 08:32:04;;;;;;;5.90;1.10;;;1.40;99.90;;;;;;5166109;28;20282;-65
2021/03/19 08:35:01;;;;;;;4.40;1.67;;;1.40;99.90;;;;;;5166330;28;20548;-69
2021/03/19 08:37:47;;;;;;;2.07;0.80;;;1.20;99.90;;;;;;5165801;28;20639;-65
2021/03/19 08:40:39;;;;;;;1.07;0.90;;;1.10;99.90;;;;;;5166144;28;20204;-69
2021/03/19 08:43:18;;;;;;;1.53;0.77;;;0.80;99.90;;;;;;5153754;28;20239;-66
2021/03/19 08:46:15;;;;;;;2.33;0.90;;;0.60;99.90;;;;;;5160167;28;20196;-65
2021/03/19 08:48:53;;;;;;;3.83;0.90;;;0.40;99.90;;;;;;5165246;28;20220;-64
2021/03/19 08:51:28;;;;;;;3.53;1.17;;;0.40;99.90;;;;;;5096244;28;20203;-65
2021/03/19 08:54:07;;;;;;;1.97;0.80;;;0.40;99.90;;;;;;5164626;28;20284;-66
2021/03/19 08:57:03;;;;;;;3.33;0.80;;;0.40;99.90;;;;;;5162452;28;20195;-64
2021/03/19 08:59:35;;;;;;;1.63;0.90;;;0.60;99.90;;;;;;5165080;28;20283;-63
2021/03/19 09:02:25;;;;;;;6.07;1.20;;;0.60;99.90;;;;;;5165752;28;20195;-66
2021/03/19 09:04:58;;;;;;;3.63;1.50;;;0.60;99.90;;;;;;5163156;28;20191;-65
2021/03/19 09:07:54;;;;;;;2.40;1.03;;;0.50;99.90;;;;;;5165058;28;20557;-65
2021/03/19 09:14:11;;;;;;;1.40;0.90;;;0.90;99.90;;;;;;5164789;28;20176;-64
2021/03/19 09:16:55;;;;;;;6.33;1.77;;;1.00;99.90;;;;;;5164572;28;20246;-64
2021/03/19 09:19:34;;;;;;;4.00;1.20;;;1.10;99.90;;;;;;5163656;28;20204;-67
2021/03/19 09:22:24;;;;;;;2.57;1.00;;;1.30;99.90;;;;;;5165191;28;20207;-65
2021/03/19 09:25:14;;;;;;;2.53;0.90;;;1.30;99.90;;;;;;5164798;28;20199;-68
2021/03/19 09:31:45;;;;;;;6.57;1.20;;;0.50;99.90;;;;;;5162416;28;20230;-63
2021/03/19 09:34:23;;;;;;;2.97;1.20;;;0.30;99.90;;;;;;5164097;28;20199;-62
2021/03/19 09:37:00;;;;;;;1.53;1.20;;;0.40;99.90;;;;;;5163445;28;20191;-64
2021/03/19 09:39:53;;;;;;;3.20;1.00;;;0.50;99.90;;;;;;5163845;28;20195;-63
2021/03/19 09:42:28;;;;;;;3.97;0.93;;;0.60;99.90;;;;;;5164133;28;20821;-64
2021/03/19 09:44:59;;;;;;;5.53;1.10;;;0.50;99.90;;;;;;5164446;28;20651;-66
2021/03/19 09:47:44;;;;;;;1.60;0.90;;;0.60;99.90;;;;;;5164611;28;20258;-65
2021/03/19 09:50:25;;;;;;;1.23;0.90;;;0.50;99.90;;;;;;5162813;28;20198;-66
2021/03/19 09:53:00;;;;;;;1.83;0.80;;;0.50;99.90;;;;;;5162329;28;20203;-65
2021/03/19 09:59:32;;;;;;;2.33;0.80;;;0.50;99.90;;;;;;5165300;28;20214;-67
2021/03/19 10:02:27;;;;;;;2.33;0.80;;;0.70;99.90;;;;;;5169345;28;20559;-71
2021/03/19 10:05:26;;;;;;;2.80;0.77;;;0.50;99.90;;;;;;5168663;28;20200;-67
2021/03/19 10:08:00;;;;;;;3.23;1.17;;;0.50;99.90;;;;;;5166360;28;20232;-76
2021/03/19 10:10:43;;;;;;;2.07;0.90;;;0.40;99.90;;;;;;5169781;28;20204;-70
2021/03/19 10:17:09;;;;;;;1.63;0.87;;;0.50;99.90;;;;;;5168038;28;20586;-73
2021/03/19 10:19:43;;;;;;;2.70;0.97;;;0.60;99.90;;;;;;5163547;28;20231;-63
2021/03/19 10:22:28;;;;;;;3.40;1.20;;;0.70;99.90;;;;;;5183326;28;20199;-73
2021/03/19 10:25:32;;;;;;;1.03;0.87;;;1.00;99.90;;;;;;5167467;28;20725;-74
2021/03/19 10:28:16;;;;;;;2.80;0.83;;;1.00;99.90;;;;;;5168383;28;20215;-74
2021/03/19 10:31:11;;;;;;;1.63;0.90;;;0.80;99.90;;;;;;5174536;28;20199;-71
2021/03/19 10:33:47;;;;;;;2.23;0.80;;;0.60;99.90;;;;;;5174136;28;20239;-73
2021/03/19 10:36:40;;;;;;;2.37;0.63;;;0.50;99.90;;;;;;5167637;28;20234;-73
2021/03/19 10:39:29;;;;;;;2.60;0.90;;;0.60;99.90;;;;;;5167479;28;20196;-69
2021/03/19 10:46:10;;;;;;;2.30;0.90;;;0.40;99.90;;;;;;5167467;28;20591;-74
2021/03/19 10:48:54;;;;;;;2.53;1.17;;;0.50;99.90;;;;;;5167931;28;20216;-73
2021/03/19 10:51:47;;;;;;;3.07;0.90;;;0.50;99.90;;;;;;5168405;28;20298;-68
2021/03/19 10:54:21;;;;;;;2.97;1.17;;;0.60;99.90;;;;;;5165440;28;20299;-64
2021/03/19 11:00:51;;;;;;;1.90;1.00;;;0.60;99.90;;;;;;5168355;28;20230;-66
2021/03/19 11:03:45;;;;;;;9.83;0.93;;;0.60;99.90;;;;;;5168398;28;20601;-72
2021/03/19 11:06:46;;;;;;;2.07;1.10;;;0.50;99.90;;;;;;5167907;28;20266;-67
2021/03/19 11:09:21;;;;;;;2.60;0.83;;;0.40;99.90;;;;;;5125882;29;20558;-68
2021/03/19 11:12:18;;;;;;;3.07;1.20;;;0.40;99.90;;;;;;5125793;28;20636;-71
2021/03/19 11:14:58;;;;;;;3.10;0.70;;;0.50;99.90;;;;;;5125574;29;20205;-70
2021/03/19 11:17:30;;;;;;;2.77;0.87;;;0.40;99.90;;;;;;5125519;29;20243;-65
2021/03/19 11:20:10;;;;;;;3.63;0.70;;;0.50;99.90;;;;;;5125350;29;20244;-63
2021/03/19 11:22:46;;;;;;;1.27;0.70;;;0.60;99.90;;;;;;5125622;29;20193;-73
2021/03/19 11:25:34;;;;;;;2.07;0.90;;;0.50;99.90;;;;;;5125314;29;20219;-63
2021/03/19 11:28:14;;;;;;;2.83;1.03;;;0.70;99.90;;;;;;5125111;29;20232;-64
2021/03/19 11:30:47;;;;;;;2.17;0.80;;;0.80;99.90;;;;;;5125359;29;20220;-63
2021/03/19 11:33:20;;;;;;;2.07;1.10;;;0.80;99.90;;;;;;5122980;29;20212;-63
2021/03/19 11:36:10;;;;;;;2.00;1.00;;;0.80;99.90;;;;;;5125047;29;20696;-77
2021/03/19 11:38:41;;;;;;;1.30;0.70;;;0.90;99.90;;;;;;5124906;29;20549;-65
2021/03/19 11:45:15;;;;;;;1.23;0.73;;;1.10;99.90;;;;;;5137277;28;20301;-69
2021/03/19 11:48:01;;;;;;;3.07;1.27;;;1.20;99.90;;;;;;5167564;28;20199;-69
2021/03/19 11:51:08;;;;;;;4.27;1.10;;;0.80;99.90;;;;;;5167236;28;20290;-67
2021/03/19 11:53:40;;;;;;;4.90;1.30;;;-0.10;99.90;;;;;;5167720;28;20580;-69
2021/03/19 11:56:15;;;;;;;5.33;1.03;;;-0.80;99.90;;;;;;5170353;28;20195;-72
2021/03/19 11:58:47;;;;;;;1.83;1.00;;;-1.30;99.90;;;;;;5173178;28;20291;-74
2021/03/19 12:01:19;;;;;;;5.47;1.40;;;-1.50;99.90;;;;;;5171880;28;20198;-69
2021/03/19 12:03:53;;;;;;;5.65;1.30;;;-1.50;99.90;;;;;;5169076;28;20459;-73
2021/03/19 12:06:29;;;;;;;6.07;1.83;;;-1.40;99.90;;;;;;5167948;28;20972;-72
2021/03/19 12:09:01;;;;;;;7.17;1.33;;;-1.10;99.90;;;;;;5168081;28;20222;-71
2021/03/19 12:11:36;;;;;;;6.43;1.40;;;-0.70;99.90;;;;;;5167347;28;20212;-73
2021/03/19 12:14:18;;;;;;;3.73;1.40;;;-0.80;99.90;;;;;;5086186;29;20212;-72
2021/03/19 12:16:50;;;;;;;4.80;1.23;;;-0.80;99.90;;;;;;5085470;29;20463;-71
2021/03/19 12:19:22;;;;;;;2.60;1.10;;;-1.00;99.90;;;;;;5085787;29;20210;-74
2021/03/19 12:21:54;;;;;;;1.70;1.10;;;-0.80;99.90;;;;;;5076773;29;20571;-70
2021/03/19 12:24:37;;;;;;;2.10;1.10;;;-0.70;99.90;;;;;;5088729;29;20214;-79
2021/03/19 12:31:04;;;;;;;3.87;1.33;;;-0.80;99.90;;;;;;5091463;28;20214;-77
2021/03/19 12:33:37;;;;;;;3.10;1.17;;;-0.80;99.90;;;;;;5164676;28;20205;-75
2021/03/19 12:36:10;;;;;;;3.30;1.20;;;-0.70;99.90;;;;;;5166134;28;20634;-75
2021/03/19 12:38:42;;;;;;;5.47;1.50;;;-0.60;99.90;;;;;;5166255;28;20199;-73
2021/03/19 12:41:14;;;;;;;9.27;1.77;;;-0.50;99.90;;;;;;5165410;28;20286;-75
2021/03/19 12:47:56;;;;;;;3.40;1.33;;;-0.20;99.90;;;;;;5163662;28;20269;-71
2021/03/19 12:50:28;;;;;;;4.40;1.40;;;-0.20;99.90;;;;;;5166345;28;20254;-76
2021/03/19 12:53:02;;;;;;;5.23;1.50;;;-0.10;99.90;;;;;;5163055;28;20250;-72
2021/03/19 12:55:34;;;;;;;4.23;1.10;;;0.00;99.90;;;;;;5166444;28;20227;-72
2021/03/19 13:01:54;;;;;;;4.50;1.03;;;0.30;99.90;;;;;;5166291;28;20629;-73
2021/03/19 13:04:28;;;;;;;2.83;1.10;;;0.20;99.90;;;;;;5165892;28;20195;-74
2021/03/19 13:07:02;;;;;;;4.50;1.27;;;0.00;99.90;;;;;;5165354;28;20211;-72
2021/03/19 13:09:35;;;;;;;4.17;1.20;;;-0.20;99.90;;;;;;5166309;28;20327;-75
2021/03/19 13:12:07;;;;;;;2.10;0.83;;;-0.20;99.90;;;;;;5165906;28;20199;-75
2021/03/19 13:14:56;;;;;;;5.23;1.50;;;-0.20;99.90;;;;;;5166363;28;20203;-72
2021/03/19 13:17:28;;;;;;;3.17;1.10;;;-0.20;99.90;;;;;;5165890;28;20210;-73
2021/03/19 13:20:01;;;;;;;3.60;1.33;;;-0.40;99.90;;;;;;5166303;28;20204;-73
2021/03/19 13:22:33;;;;;;;4.07;1.20;;;-0.60;99.90;;;;;;5166007;28;20202;-74
2021/03/19 13:25:08;;;;;;;2.90;1.20;;;-0.80;99.90;;;;;;5166308;28;20608;-72
2021/03/19 13:27:42;;;;;;;4.60;1.13;;;-0.90;99.90;;;;;;5165840;28;20202;-73
2021/03/19 13:30:31;;;;;;;4.47;1.30;;;-1.00;99.90;;;;;;5165516;28;20255;-74
2021/03/19 13:33:05;;;;;;;3.97;1.30;;;-1.10;99.90;;;;;;5179811;28;20254;-75
2021/03/19 13:35:42;;;;;;;2.77;1.10;;;-0.90;99.90;;;;;;5165374;28;20675;-74
2021/03/19 13:38:13;;;;;;;2.33;1.10;;;-0.70;99.90;;;;;;5165608;28;20203;-75
2021/03/19 13:40:48;;;;;;;4.60;1.10;;;-0.20;99.90;;;;;;5165603;28;20712;-73
2021/03/19 13:43:23;;;;;;;3.03;0.80;;;0.40;99.90;;;;;;5165861;28;20291;-72
2021/03/19 13:45:56;;;;;;;1.50;0.90;;;0.50;99.90;;;;;;5165864;28;20238;-71
2021/03/19 13:48:28;;;;;;;1.50;0.90;;;0.60;99.90;;;;;;5165532;28;20307;-76
2021/03/19 13:51:03;;;;;;;1.83;0.83;;;0.70;99.90;;;;;;5165597;28;20200;-71
2021/03/19 13:53:37;;;;;;;2.00;1.17;;;0.90;99.90;;;;;;5165672;28;20203;-73
2021/03/19 13:56:12;;;;;;;4.37;1.13;;;0.90;99.90;;;;;;5165583;28;20200;-71
2021/03/19 13:58:44;;;;;;;3.20;1.37;;;0.70;99.90;;;;;;5165515;28;20254;-73
2021/03/19 14:01:15;;;;;;;3.37;0.83;;;0.60;99.90;;;;;;5165850;28;20613;-73
2021/03/19 14:03:48;;;;;;;1.80;0.80;;;0.60;99.90;;;;;;5165095;28;20192;-72
2021/03/19 14:06:23;;;;;;;1.50;0.87;;;0.30;99.90;;;;;;5165670;28;20191;-76
2021/03/19 14:08:55;;;;;;;2.90;1.00;;;0.10;99.90;;;;;;5165819;28;20645;-73
2021/03/19 14:11:26;;;;;;;1.63;0.70;;;0.20;99.90;;;;;;5165353;28;20202;-74
2021/03/19 14:13:58;;;;;;;0.93;0.77;;;0.10;99.90;;;;;;5165569;28;20565;-72
2021/03/19 14:16:30;;;;;;;3.57;1.20;;;0.00;99.90;;;;;;5165412;28;20245;-75
2021/03/19 14:19:02;;;;;;;4.27;1.03;;;-0.20;99.90;;;;;;5165438;28;20713;-74
2021/03/19 14:21:34;;;;;;;3.57;1.00;;;-0.50;99.90;;;;;;5165261;28;20199;-73
2021/03/19 14:24:06;;;;;;;3.60;1.20;;;-0.20;99.90;;;;;;5165596;28;20222;-73
2021/03/19 14:26:38;;;;;;;3.17;0.90;;;0.20;99.90;;;;;;5180212;28;20241;-75
2021/03/19 14:29:09;;;;;;;3.80;1.30;;;0.20;99.90;;;;;;5165169;28;20235;-73
2021/03/19 14:31:41;;;;;;;2.10;0.97;;;0.30;99.90;;;;;;5165766;28;20202;-75
2021/03/19 14:34:13;;;;;;;1.77;0.73;;;0.40;99.90;;;;;;5165553;28;20541;-73
2021/03/19 14:36:45;;;;;;;2.97;0.80;;;0.60;99.90;;;;;;5156982;28;20242;-75
2021/03/19 14:39:17;;;;;;;3.27;0.83;;;0.30;99.90;;;;;;5165367;28;20543;-73
2021/03/19 14:41:50;;;;;;;3.70;0.90;;;0.10;99.90;;;;;;5166546;28;20196;-74
2021/03/19 14:44:22;;;;;;;2.00;0.83;;;-0.10;99.90;;;;;;5167152;28;20559;-74
2021/03/19 14:46:59;;;;;;;3.13;1.00;;;-0.30;99.90;;;;;;5169346;28;20247;-75
2021/03/19 14:49:31;;;;;;;2.47;1.10;;;-0.20;99.90;;;;;;5170739;28;20223;-76
2021/03/19 14:52:03;;;;;;;3.83;0.97;;;-0.10;99.90;;;;;;5168695;28;20613;-73
2021/03/19 14:54:35;;;;;;;3.57;0.90;;;-0.10;99.90;;;;;;5169018;28;20610;-73
2021/03/19 14:57:08;;;;;;;3.73;1.10;;;0.00;99.90;;;;;;5169072;28;20202;-73
2021/03/19 14:59:40;;;;;;;2.80;1.30;;;0.00;99.90;;;;;;5168346;28;20658;-72
2021/03/19 15:02:11;;;;;;;3.37;1.10;;;0.00;99.90;;;;;;5161855;28;20195;-75
2021/03/19 15:04:44;;;;;;;2.70;1.20;;;-0.10;99.90;;;;;;5167977;28;20663;-74
2021/03/19 15:07:15;;;;;;;1.93;0.90;;;-0.20;99.90;;;;;;5168384;28;20207;-76
2021/03/19 15:09:47;;;;;;;4.13;1.00;;;-0.30;99.90;;;;;;5168578;28;20558;-75
2021/03/19 15:12:18;;;;;;;3.43;0.90;;;-0.40;99.90;;;;;;5168168;28;20639;-73
2021/03/19 15:14:50;;;;;;;1.80;1.03;;;-0.50;99.90;;;;;;5168256;28;20612;-74
2021/03/19 15:17:21;;;;;;;3.47;0.83;;;-0.60;99.90;;;;;;5168580;28;20195;-73
2021/03/19 15:19:53;;;;;;;3.07;0.90;;;-0.70;99.90;;;;;;5168076;28;20670;-72
2021/03/19 15:22:25;;;;;;;4.10;1.13;;;-0.80;99.90;;;;;;5167924;28;20570;-74
2021/03/19 15:24:56;;;;;;;2.73;1.00;;;-0.80;99.90;;;;;;5167991;28;20207;-75
2021/03/19 15:27:28;;;;;;;3.70;1.00;;;-0.80;99.90;;;;;;5168945;28;20204;-75
2021/03/19 15:30:02;;;;;;;3.17;1.20;;;-0.80;99.90;;;;;;5170333;28;20219;-74